Airfield :
LOGIN :

Register | Disclaimer

   EN    FR    IT 

 










Legend :    VFR   Marginal VFR   IFR   Intensive IFR   Very Intensive IFR
Visi :
Ceiling :
>= 8 km
>= 3000ft
5 to 8 km
1000 to 3000 ft
1500m to 5 km
500 to 1000 ft
800 to 1500m
200 to 500 ft
< 800m
< 200 ft
Symbols :   Thunderstorms  Fog  Heavy snow  Heavy precipitations  Wind > 20 kt
SIGMETs :     Misc.  Thunderstorms  Icing  Turbulence  Mountain Waves  Volcanic Ashes






- Airport Elevation : 256 ft
- IATA code : CFR


LFRK - Caen

CURRENT METAR :
  • 270830Z AUTO 26021G32KT 9999 -RADZ BKN013 BKN019 BKN030 11/09 Q0990 TEMPO 4000 SHRA BECMG 32020G40KT

EXPIRED METARs :
  • 270800Z AUTO 25017KT 4200 -DZ BR FEW006 BKN011 OVC021 10/09 Q0990 TEMPO 27025G45KT SHRA
  • 270730Z AUTO 22015KT 5000 -RADZ BR BKN011 BKN017 OVC027 09/08 Q0990 TEMPO 27025G45KT SHRA
  • 270700Z AUTO 20017KT 7000 -DZ FEW012 BKN020 BKN027 08/07 Q0991 TEMPO 27025G45KT 4000 SHRA BKN012
  • 270630Z AUTO 19018KT 9999 -RADZ FEW013 BKN026 BKN031 07/06 Q0992 TEMPO 27025G45KT 4000 SHRA BKN012
  • 270600Z AUTO 19022KT 9999 SCT014 BKN024 BKN038 07/05 Q0992 TEMPO 3000 RA BKN005 BECMG 26020G40KT
  • 270530Z AUTO 18022KT 9999 -RADZ OVC011/// ///TCU 06/05 Q0993 TEMPO 3000 RA BECMG 26020G40KT SCT010 BKN020

TAF TAF LFRK
Valid from the 27 at 06:00 until the 27 at 15:00 UTC


270500Z 2706/2715 20020G35KT 5000 RA BKN010
BECMG 2706/2708 26020G40KT 9999 NSW SCT010 BKN020
TEMPO 2706/2707 3000 RA BKN005
PROB40
TEMPO 2708/2710 27025G45KT
TEMPO 2708/2712 4000 SHRA BKN012
BECMG 2709/2711 32020G40KT
Met : +33 2 31 26 68 11



MET'MAP, your aeronautical weather chart ! - Copyright ORBIFLY December 2007 - Disclaimer

ORBIFLY MET'MAP TEAM :

Programming & Development : Alexandra Zaïnal
Concept & original design : Baudouin d'Aumeries
Assistance for programming : Marc-Olivier Méhu
Technical & hardware support : Manuel Goepfert

Contact : metmap@orbifly.com




SOURCES & CREDITS :

   NOAA